Time;durP1;ratioP1;P1;durP2;ratioP2;P2;SDS_P1;SDS_P2;PMS_P1;PMS_P2;Temp;Humidity;BMP_temperature;BMP_pressure;BME280_temperature;BME280_humidity;BME280_pressure;Samples;Min_cycle;Max_cycle;Signal;HPM_P1;HPM_P2
2023/06/06 00:00:34;;;;;;;2.47;1.88;;;;;;;;;;5048337;28;20364;-81
2023/06/06 00:02:59;;;;;;;2.10;1.70;;;;;;;;;;5046828;28;20029;-81
2023/06/06 00:05:29;;;;;;;2.53;2.08;;;;;;;;;;5041021;28;20040;-80
2023/06/06 00:07:55;;;;;;;2.55;1.80;;;;;;;;;;5037625;28;20017;-83
2023/06/06 00:10:20;;;;;;;4.50;1.75;;;;;;;;;;5047537;28;20025;-82
2023/06/06 00:12:52;;;;;;;2.80;2.00;;;;;;;;;;5071778;28;20013;-84
2023/06/06 00:15:28;;;;;;;3.28;1.92;;;;;;;;;;5035952;28;20056;-84
2023/06/06 00:17:55;;;;;;;2.20;1.70;;;;;;;;;;5069631;28;20098;-83
2023/06/06 00:20:22;;;;;;;2.67;1.90;;;;;;;;;;5044374;28;20025;-84
2023/06/06 00:22:48;;;;;;;3.38;2.20;;;;;;;;;;5035358;28;20026;-82
2023/06/06 00:25:14;;;;;;;3.22;2.10;;;;;;;;;;5045013;28;20025;-84
2023/06/06 00:27:39;;;;;;;2.33;1.95;;;;;;;;;;5040095;28;20046;-82
2023/06/06 00:30:06;;;;;;;2.92;2.10;;;;;;;;;;5039236;28;20467;-82
2023/06/06 00:32:31;;;;;;;2.20;2.00;;;;;;;;;;5030594;28;20028;-82
2023/06/06 00:34:56;;;;;;;3.22;1.98;;;;;;;;;;5035680;28;20021;-81
2023/06/06 00:37:22;;;;;;;3.65;2.20;;;;;;;;;;5035776;28;20041;-82
2023/06/06 00:39:47;;;;;;;2.50;2.30;;;;;;;;;;5048727;28;20136;-80
2023/06/06 00:42:13;;;;;;;3.65;1.90;;;;;;;;;;5030804;28;20105;-83
2023/06/06 00:44:38;;;;;;;3.35;2.28;;;;;;;;;;5024150;28;20108;-82
2023/06/06 00:47:04;;;;;;;2.03;1.75;;;;;;;;;;5028980;28;20049;-83
2023/06/06 00:49:30;;;;;;;2.10;1.90;;;;;;;;;;5024580;28;20046;-82
2023/06/06 00:51:55;;;;;;;2.47;2.10;;;;;;;;;;5029653;28;20021;-83
2023/06/06 00:54:21;;;;;;;3.42;1.98;;;;;;;;;;5036052;28;20056;-82
2023/06/06 00:56:49;;;;;;;2.45;2.10;;;;;;;;;;5035685;28;20676;-81
2023/06/06 00:59:15;;;;;;;7.95;2.05;;;;;;;;;;5034282;28;20052;-80
2023/06/06 01:01:42;;;;;;;2.05;1.80;;;;;;;;;;5035801;28;20029;-82
2023/06/06 01:04:10;;;;;;;2.75;1.98;;;;;;;;;;5022775;28;20606;-82
2023/06/06 01:06:37;;;;;;;3.63;2.08;;;;;;;;;;5033898;28;20497;-81
2023/06/06 01:09:07;;;;;;;2.40;2.20;;;;;;;;;;5037568;28;20060;-83
2023/06/06 01:12:20;;;;;;;3.53;2.10;;;;;;;;;;5042238;28;20080;-83
2023/06/06 01:15:16;;;;;;;2.63;2.13;;;;;;;;;;4998230;28;20595;-82
2023/06/06 01:17:42;;;;;;;2.60;2.00;;;;;;;;;;5042123;28;20121;-82
2023/06/06 01:20:09;;;;;;;6.03;2.20;;;;;;;;;;5041047;28;20021;-81
2023/06/06 01:22:36;;;;;;;4.50;2.25;;;;;;;;;;5034752;28;20349;-83
2023/06/06 01:25:02;;;;;;;3.35;2.35;;;;;;;;;;5048352;28;20507;-83
2023/06/06 01:27:28;;;;;;;2.53;2.10;;;;;;;;;;5042940;28;20112;-84
2023/06/06 01:29:53;;;;;;;3.58;2.17;;;;;;;;;;5035911;28;20107;-83
2023/06/06 01:32:31;;;;;;;4.68;2.28;;;;;;;;;;5028258;28;20029;-82
2023/06/06 01:35:14;;;;;;;2.33;2.10;;;;;;;;;;5052289;28;20018;-82
2023/06/06 01:37:45;;;;;;;4.03;2.45;;;;;;;;;;5036107;28;20094;-82
2023/06/06 01:40:13;;;;;;;4.40;2.30;;;;;;;;;;5035607;28;20022;-81
2023/06/06 01:42:44;;;;;;;5.47;2.25;;;;;;;;;;5015548;28;20401;-82
2023/06/06 01:45:11;;;;;;;2.67;2.22;;;;;;;;;;5035949;28;20117;-83
2023/06/06 01:47:38;;;;;;;3.78;2.50;;;;;;;;;;5048902;28;20147;-82
2023/06/06 01:50:07;;;;;;;3.42;2.22;;;;;;;;;;5049265;28;20083;-82
2023/06/06 01:52:36;;;;;;;4.93;2.30;;;;;;;;;;5038047;28;20132;-82
2023/06/06 01:55:02;;;;;;;3.53;2.33;;;;;;;;;;5036825;28;20021;-82
2023/06/06 01:57:27;;;;;;;3.47;2.90;;;;;;;;;;5037403;28;20025;-82
2023/06/06 01:59:53;;;;;;;3.47;2.50;;;;;;;;;;5037093;28;20040;-83
2023/06/06 02:02:19;;;;;;;5.75;2.45;;;;;;;;;;5039309;28;20032;-82
2023/06/06 02:04:44;;;;;;;2.63;2.08;;;;;;;;;;5044998;28;20033;-82
2023/06/06 02:07:11;;;;;;;2.95;2.30;;;;;;;;;;5036486;28;20029;-82
2023/06/06 02:09:36;;;;;;;3.17;2.38;;;;;;;;;;5033252;28;20547;-82
2023/06/06 02:12:02;;;;;;;5.80;2.63;;;;;;;;;;5034167;28;20018;-82
2023/06/06 02:14:27;;;;;;;2.50;2.25;;;;;;;;;;5038874;28;20036;-82
2023/06/06 02:16:54;;;;;;;2.30;2.05;;;;;;;;;;5039804;28;20109;-82
2023/06/06 02:19:19;;;;;;;3.75;1.90;;;;;;;;;;5044583;28;20036;-82
2023/06/06 02:21:47;;;;;;;3.70;2.42;;;;;;;;;;5034599;28;20033;-82
2023/06/06 02:24:13;;;;;;;2.55;2.00;;;;;;;;;;5033368;28;20047;-82
2023/06/06 02:26:42;;;;;;;3.58;2.38;;;;;;;;;;5031368;28;20037;-82
2023/06/06 02:29:08;;;;;;;3.67;2.63;;;;;;;;;;5035919;28;20021;-82
2023/06/06 02:31:36;;;;;;;4.25;2.63;;;;;;;;;;5035362;28;20084;-82
2023/06/06 02:34:02;;;;;;;3.95;2.58;;;;;;;;;;5043895;28;20013;-82
2023/06/06 02:36:29;;;;;;;3.15;2.40;;;;;;;;;;5034978;28;20060;-82
2023/06/06 02:38:55;;;;;;;2.28;1.95;;;;;;;;;;5036437;28;20045;-83
2023/06/06 02:41:20;;;;;;;2.83;2.42;;;;;;;;;;5042931;28;20407;-82
2023/06/06 02:43:45;;;;;;;2.92;2.45;;;;;;;;;;5037126;28;20112;-83
2023/06/06 02:46:11;;;;;;;2.85;2.28;;;;;;;;;;5039093;28;20053;-84
2023/06/06 02:48:36;;;;;;;3.83;2.92;;;;;;;;;;5038812;28;20038;-82
2023/06/06 02:51:01;;;;;;;3.17;2.60;;;;;;;;;;5036651;28;20564;-83
2023/06/06 02:53:27;;;;;;;2.85;2.42;;;;;;;;;;5033072;28;20030;-83
2023/06/06 02:55:52;;;;;;;4.28;2.60;;;;;;;;;;5037880;28;20025;-82
2023/06/06 02:58:27;;;;;;;3.30;2.45;;;;;;;;;;5037414;28;20556;-82
2023/06/06 03:00:54;;;;;;;3.90;2.80;;;;;;;;;;5029695;28;20404;-82
2023/06/06 03:03:19;;;;;;;3.50;2.60;;;;;;;;;;5015567;28;20060;-83
2023/06/06 03:05:51;;;;;;;3.13;2.53;;;;;;;;;;5041493;28;20029;-84
2023/06/06 03:08:19;;;;;;;3.20;2.47;;;;;;;;;;5035225;28;20021;-84
2023/06/06 03:10:49;;;;;;;4.32;2.92;;;;;;;;;;5047996;28;20044;-80
2023/06/06 03:13:16;;;;;;;3.65;2.78;;;;;;;;;;5046151;28;20017;-80
2023/06/06 03:15:44;;;;;;;4.20;2.67;;;;;;;;;;5044412;28;20026;-82
2023/06/06 03:18:16;;;;;;;8.52;2.53;;;;;;;;;;5039347;28;20017;-82
2023/06/06 03:20:44;;;;;;;4.43;2.83;;;;;;;;;;5034835;28;20034;-82
2023/06/06 03:23:11;;;;;;;4.93;3.53;;;;;;;;;;5037290;28;20078;-82
2023/06/06 03:25:39;;;;;;;5.75;2.90;;;;;;;;;;5043397;28;20029;-82
2023/06/06 03:28:04;;;;;;;5.65;2.80;;;;;;;;;;5052732;28;20016;-80
2023/06/06 03:30:29;;;;;;;3.63;2.70;;;;;;;;;;5038765;28;20128;-80
2023/06/06 03:32:55;;;;;;;4.72;2.90;;;;;;;;;;5036323;28;20014;-83
2023/06/06 03:35:21;;;;;;;4.15;2.60;;;;;;;;;;5035676;28;20032;-84
2023/06/06 03:37:47;;;;;;;3.38;2.70;;;;;;;;;;5026049;28;20025;-82
2023/06/06 03:40:13;;;;;;;4.80;3.10;;;;;;;;;;5036320;28;20087;-82
2023/06/06 03:42:38;;;;;;;3.58;2.38;;;;;;;;;;5030286;28;20026;-82
2023/06/06 03:45:05;;;;;;;4.88;2.67;;;;;;;;;;5036910;28;20028;-82
2023/06/06 03:47:30;;;;;;;11.68;3.13;;;;;;;;;;5035569;28;20044;-83
2023/06/06 03:49:55;;;;;;;6.70;2.83;;;;;;;;;;5034509;28;20025;-84
2023/06/06 03:52:22;;;;;;;5.53;2.83;;;;;;;;;;5032579;28;20025;-83
2023/06/06 03:54:47;;;;;;;4.90;2.63;;;;;;;;;;5034690;28;20113;-81
2023/06/06 03:57:13;;;;;;;3.78;2.70;;;;;;;;;;5034425;28;20448;-84
2023/06/06 03:59:39;;;;;;;6.85;3.10;;;;;;;;;;5043528;28;20044;-82
2023/06/06 04:02:05;;;;;;;3.42;2.83;;;;;;;;;;5033558;28;20107;-83
2023/06/06 04:04:32;;;;;;;4.85;2.92;;;;;;;;;;5036077;28;20033;-83
2023/06/06 04:06:58;;;;;;;5.18;3.10;;;;;;;;;;5035832;28;20025;-82
2023/06/06 04:09:23;;;;;;;5.78;2.80;;;;;;;;;;5032295;28;20029;-82
2023/06/06 04:11:49;;;;;;;4.30;3.03;;;;;;;;;;5034994;28;20495;-83
2023/06/06 04:14:14;;;;;;;5.40;2.80;;;;;;;;;;5036127;28;20032;-85
2023/06/06 04:16:40;;;;;;;4.35;2.88;;;;;;;;;;5036761;28;20040;-84
2023/06/06 04:19:06;;;;;;;4.53;3.00;;;;;;;;;;5034744;28;20033;-84
2023/06/06 04:21:32;;;;;;;4.35;2.97;;;;;;;;;;5013862;28;20052;-83
2023/06/06 04:23:58;;;;;;;5.05;2.95;;;;;;;;;;5030218;28;20052;-82
2023/06/06 04:26:25;;;;;;;2.95;2.50;;;;;;;;;;5032732;28;20037;-84
2023/06/06 04:28:58;;;;;;;4.45;3.10;;;;;;;;;;5023727;28;20025;-82
2023/06/06 04:31:25;;;;;;;3.50;2.90;;;;;;;;;;5030738;28;20041;-83
2023/06/06 04:33:54;;;;;;;4.30;3.03;;;;;;;;;;5029345;28;20028;-81
2023/06/06 04:36:21;;;;;;;5.40;3.33;;;;;;;;;;5042530;28;20028;-82
2023/06/06 04:38:48;;;;;;;3.35;2.65;;;;;;;;;;5037458;28;20065;-83
2023/06/06 04:41:15;;;;;;;5.60;3.22;;;;;;;;;;5038521;28;20161;-82
2023/06/06 04:43:42;;;;;;;4.55;3.00;;;;;;;;;;5060465;28;20113;-82
2023/06/06 04:46:07;;;;;;;9.18;4.85;;;;;;;;;;5061392;28;20049;-84
2023/06/06 04:48:33;;;;;;;5.10;2.90;;;;;;;;;;5055405;28;20131;-83
2023/06/06 04:50:58;;;;;;;3.75;2.95;;;;;;;;;;5042151;28;20033;-83
2023/06/06 04:53:24;;;;;;;5.43;2.80;;;;;;;;;;5035955;28;20048;-83
2023/06/06 04:55:49;;;;;;;6.15;3.05;;;;;;;;;;5038247;28;20048;-83
2023/06/06 04:58:16;;;;;;;8.80;2.88;;;;;;;;;;5039294;28;20025;-83
2023/06/06 05:00:45;;;;;;;5.85;2.90;;;;;;;;;;5035918;28;20980;-83
2023/06/06 05:03:11;;;;;;;4.57;3.05;;;;;;;;;;5035899;28;20021;-83
2023/06/06 05:05:36;;;;;;;3.13;2.47;;;;;;;;;;5037197;28;20369;-83
2023/06/06 05:08:02;;;;;;;4.85;2.47;;;;;;;;;;5039613;28;20032;-82
2023/06/06 05:10:27;;;;;;;4.32;2.78;;;;;;;;;;5037443;28;20025;-82
2023/06/06 05:12:53;;;;;;;5.07;3.00;;;;;;;;;;5036150;28;20037;-82
2023/06/06 05:15:18;;;;;;;3.83;2.60;;;;;;;;;;5036301;28;20116;-82
2023/06/06 05:17:56;;;;;;;5.45;2.70;;;;;;;;;;5040891;28;20116;-83
2023/06/06 05:20:25;;;;;;;3.60;2.75;;;;;;;;;;5042265;28;20114;-82
2023/06/06 05:22:50;;;;;;;4.45;2.92;;;;;;;;;;5019532;28;20029;-83
2023/06/06 05:25:16;;;;;;;3.92;2.88;;;;;;;;;;5022596;28;20029;-83
2023/06/06 05:27:41;;;;;;;2.80;2.30;;;;;;;;;;5007016;28;20041;-82
2023/06/06 05:30:07;;;;;;;5.47;2.70;;;;;;;;;;5037233;28;20026;-82
2023/06/06 05:32:32;;;;;;;4.15;2.80;;;;;;;;;;5036866;28;20060;-82
2023/06/06 05:35:03;;;;;;;6.05;2.88;;;;;;;;;;5046454;28;20039;-82
2023/06/06 05:37:28;;;;;;;5.30;3.03;;;;;;;;;;5038632;28;20034;-83
2023/06/06 05:39:54;;;;;;;6.68;2.83;;;;;;;;;;5027018;28;20076;-83
2023/06/06 05:42:22;;;;;;;4.70;2.70;;;;;;;;;;5041351;28;20492;-83
2023/06/06 05:44:50;;;;;;;4.63;2.90;;;;;;;;;;5039220;28;20029;-82
2023/06/06 05:47:16;;;;;;;4.22;3.47;;;;;;;;;;5032792;28;20391;-83
2023/06/06 05:49:41;;;;;;;7.55;3.80;;;;;;;;;;5032692;28;20049;-83
2023/06/06 05:52:06;;;;;;;7.38;4.45;;;;;;;;;;5031021;28;20025;-83
2023/06/06 05:54:32;;;;;;;6.07;4.63;;;;;;;;;;5036963;28;20033;-82
2023/06/06 05:56:58;;;;;;;6.15;4.72;;;;;;;;;;5035857;28;20025;-83
2023/06/06 05:59:23;;;;;;;4.80;3.53;;;;;;;;;;5045525;28;20057;-83
2023/06/06 06:01:49;;;;;;;6.55;4.00;;;;;;;;;;5035302;28;20488;-82
2023/06/06 06:04:18;;;;;;;5.53;3.90;;;;;;;;;;5033329;28;20036;-82
2023/06/06 06:06:46;;;;;;;4.82;3.15;;;;;;;;;;5034869;28;20537;-83
2023/06/06 06:09:13;;;;;;;5.72;3.00;;;;;;;;;;5043098;28;20025;-83
2023/06/06 06:11:40;;;;;;;4.25;2.67;;;;;;;;;;5036507;28;20037;-82
2023/06/06 06:14:05;;;;;;;5.70;2.95;;;;;;;;;;5044383;28;20534;-82
2023/06/06 06:16:31;;;;;;;6.22;2.90;;;;;;;;;;5031051;28;20052;-82
2023/06/06 06:18:56;;;;;;;4.53;2.95;;;;;;;;;;5040946;28;20404;-83
2023/06/06 06:21:21;;;;;;;4.93;3.17;;;;;;;;;;4994284;28;20136;-83
2023/06/06 06:23:49;;;;;;;3.45;2.80;;;;;;;;;;4999151;28;20052;-82
2023/06/06 06:26:15;;;;;;;5.13;2.60;;;;;;;;;;5027598;28;20034;-83
2023/06/06 06:28:40;;;;;;;3.30;2.50;;;;;;;;;;5036792;28;20030;-82
2023/06/06 06:31:06;;;;;;;4.15;2.70;;;;;;;;;;5028112;28;20022;-83
2023/06/06 06:33:33;;;;;;;3.85;2.63;;;;;;;;;;5029149;28;20113;-83
2023/06/06 06:35:59;;;;;;;4.03;2.80;;;;;;;;;;5036587;28;20021;-82
2023/06/06 06:38:24;;;;;;;2.90;2.40;;;;;;;;;;5043795;28;20029;-82
2023/06/06 06:40:50;;;;;;;5.55;2.63;;;;;;;;;;5051644;28;20120;-82
2023/06/06 06:43:16;;;;;;;3.70;2.75;;;;;;;;;;5045064;28;20033;-82
2023/06/06 06:45:41;;;;;;;4.32;3.08;;;;;;;;;;5036713;28;20460;-83
2023/06/06 06:48:07;;;;;;;3.92;2.60;;;;;;;;;;5036250;28;20025;-83
2023/06/06 06:50:32;;;;;;;4.10;3.08;;;;;;;;;;5046164;28;20086;-83
2023/06/06 06:52:57;;;;;;;4.47;3.10;;;;;;;;;;5034929;28;20510;-82
2023/06/06 06:55:23;;;;;;;5.32;2.60;;;;;;;;;;5038377;28;20169;-83
2023/06/06 06:57:50;;;;;;;4.05;2.35;;;;;;;;;;5034037;28;20108;-83
2023/06/06 07:00:18;;;;;;;5.32;2.55;;;;;;;;;;5038078;28;20071;-82
2023/06/06 07:02:44;;;;;;;5.90;3.03;;;;;;;;;;5035300;28;20488;-83
2023/06/06 07:05:15;;;;;;;3.58;2.92;;;;;;;;;;5035416;28;20068;-83
2023/06/06 07:07:47;;;;;;;3.72;2.50;;;;;;;;;;5036177;28;20052;-82
2023/06/06 07:10:16;;;;;;;4.10;2.58;;;;;;;;;;5037734;28;20031;-82
2023/06/06 07:12:47;;;;;;;3.65;2.55;;;;;;;;;;5045947;28;20104;-83
2023/06/06 07:15:12;;;;;;;3.45;2.28;;;;;;;;;;5041006;28;20022;-83
2023/06/06 07:17:37;;;;;;;11.65;2.47;;;;;;;;;;5026919;28;20037;-82
2023/06/06 07:20:05;;;;;;;5.13;2.88;;;;;;;;;;5032186;28;20543;-83
2023/06/06 07:22:30;;;;;;;4.53;2.60;;;;;;;;;;5035674;28;20081;-83
2023/06/06 07:24:56;;;;;;;3.67;2.67;;;;;;;;;;5039708;28;20045;-83
2023/06/06 07:27:21;;;;;;;3.22;2.63;;;;;;;;;;5037227;28;20087;-83
2023/06/06 07:29:46;;;;;;;2.80;2.38;;;;;;;;;;5037569;28;20079;-82
2023/06/06 07:32:12;;;;;;;5.55;2.38;;;;;;;;;;5043541;28;20013;-83
2023/06/06 07:34:37;;;;;;;5.25;2.58;;;;;;;;;;5048470;28;20104;-82
2023/06/06 07:37:03;;;;;;;4.28;2.63;;;;;;;;;;5036426;28;20044;-83
2023/06/06 07:39:28;;;;;;;5.07;2.50;;;;;;;;;;5029808;28;20029;-83
2023/06/06 07:41:53;;;;;;;4.43;2.70;;;;;;;;;;5033207;28;20041;-82
2023/06/06 07:44:20;;;;;;;3.38;2.55;;;;;;;;;;5020388;28;20112;-82
2023/06/06 07:46:45;;;;;;;4.10;2.65;;;;;;;;;;5034295;28;20040;-83
2023/06/06 07:49:10;;;;;;;4.07;2.50;;;;;;;;;;5031512;28;20030;-83
2023/06/06 07:51:36;;;;;;;3.17;2.13;;;;;;;;;;5034038;28;20021;-82
2023/06/06 07:54:01;;;;;;;5.45;2.42;;;;;;;;;;5030248;28;20032;-82
2023/06/06 07:56:30;;;;;;;3.28;2.30;;;;;;;;;;5042731;28;20116;-82
2023/06/06 07:58:55;;;;;;;2.28;1.90;;;;;;;;;;5030100;28;20398;-81
2023/06/06 08:01:21;;;;;;;3.60;2.20;;;;;;;;;;5036540;28;20029;-81
2023/06/06 08:03:50;;;;;;;4.50;2.70;;;;;;;;;;5032198;28;20029;-83
2023/06/06 08:06:27;;;;;;;3.67;2.45;;;;;;;;;;5029270;28;20108;-82
2023/06/06 08:08:52;;;;;;;5.10;2.20;;;;;;;;;;5027626;28;20030;-81
2023/06/06 08:11:17;;;;;;;3.63;2.55;;;;;;;;;;5037151;28;20183;-82
2023/06/06 08:13:43;;;;;;;3.25;1.95;;;;;;;;;;5031454;28;20064;-82
2023/06/06 08:16:09;;;;;;;7.63;2.53;;;;;;;;;;5041885;28;20017;-82
2023/06/06 08:18:35;;;;;;;2.72;2.00;;;;;;;;;;5061762;28;20029;-80
2023/06/06 08:21:01;;;;;;;3.72;2.42;;;;;;;;;;5053228;28;20040;-81
2023/06/06 08:23:26;;;;;;;3.78;2.20;;;;;;;;;;5044513;28;20048;-82
2023/06/06 08:25:57;;;;;;;3.08;2.38;;;;;;;;;;5040082;28;20037;-83
2023/06/06 08:28:23;;;;;;;3.03;2.30;;;;;;;;;;5059032;28;20021;-83
2023/06/06 08:37:14;;;;;;;2.85;1.98;;;;;;;;;;5036371;28;19923;-80
2023/06/06 08:39:40;;;;;;;2.40;2.20;;;;;;;;;;5038946;28;20112;-81
2023/06/06 08:42:08;;;;;;;2.88;2.10;;;;;;;;;;5049984;28;20009;-82
2023/06/06 08:44:34;;;;;;;2.38;2.17;;;;;;;;;;5045554;28;20116;-82
2023/06/06 08:47:02;;;;;;;4.18;2.50;;;;;;;;;;5031792;28;20048;-81
2023/06/06 08:49:29;;;;;;;5.90;2.40;;;;;;;;;;5038081;28;20065;-82
2023/06/06 08:51:56;;;;;;;2.53;2.08;;;;;;;;;;5047640;28;20517;-81
2023/06/06 08:54:22;;;;;;;4.72;2.50;;;;;;;;;;5035680;28;20029;-81
2023/06/06 08:56:48;;;;;;;3.45;2.20;;;;;;;;;;5037849;28;20029;-81
2023/06/06 08:59:14;;;;;;;2.55;1.90;;;;;;;;;;5046211;28;20458;-82
2023/06/06 09:01:40;;;;;;;4.57;2.50;;;;;;;;;;5042630;28;20029;-82
2023/06/06 09:04:13;;;;;;;3.60;2.17;;;;;;;;;;5040025;28;20030;-81
2023/06/06 09:06:43;;;;;;;5.13;2.10;;;;;;;;;;5038561;28;20030;-83
2023/06/06 09:09:09;;;;;;;6.38;2.38;;;;;;;;;;5032987;28;20025;-81
2023/06/06 09:11:35;;;;;;;3.63;2.25;;;;;;;;;;5027648;28;20036;-82
2023/06/06 09:14:00;;;;;;;4.07;2.28;;;;;;;;;;5046755;28;20021;-82
2023/06/06 09:16:26;;;;;;;2.40;2.05;;;;;;;;;;5060469;28;20016;-81
2023/06/06 09:18:52;;;;;;;3.22;2.42;;;;;;;;;;5060331;28;20032;-81
2023/06/06 09:21:18;;;;;;;4.63;2.80;;;;;;;;;;5066131;28;20041;-83
2023/06/06 09:23:44;;;;;;;3.45;2.92;;;;;;;;;;5040073;28;20026;-82
2023/06/06 09:26:21;;;;;;;3.47;2.30;;;;;;;;;;5038857;28;20124;-83
2023/06/06 09:28:47;;;;;;;2.92;2.03;;;;;;;;;;5048170;28;20037;-82
2023/06/06 09:31:29;;;;;;;5.25;2.45;;;;;;;;;;5038074;28;20432;-82
2023/06/06 09:33:57;;;;;;;5.30;2.30;;;;;;;;;;5032374;28;20044;-82
2023/06/06 09:36:28;;;;;;;4.20;2.35;;;;;;;;;;5038352;28;20040;-82
2023/06/06 09:39:20;;;;;;;5.50;2.83;;;;;;;;;;5035318;28;20022;-81
2023/06/06 09:41:47;;;;;;;3.53;2.45;;;;;;;;;;5030022;28;20053;-82
2023/06/06 09:44:20;;;;;;;2.92;2.33;;;;;;;;;;5035621;28;20044;-82
2023/06/06 09:46:46;;;;;;;4.03;2.25;;;;;;;;;;5038252;28;20076;-81
2023/06/06 09:49:14;;;;;;;3.40;2.38;;;;;;;;;;5047389;28;20387;-81
2023/06/06 09:51:41;;;;;;;9.93;3.20;;;;;;;;;;5030639;28;20030;-83
2023/06/06 09:54:08;;;;;;;5.35;2.63;;;;;;;;;;5035857;28;20039;-82
2023/06/06 09:56:39;;;;;;;4.30;2.17;;;;;;;;;;5046440;28;20094;-82
2023/06/06 09:59:05;;;;;;;2.80;2.40;;;;;;;;;;5040512;28;20048;-82
2023/06/06 10:01:33;;;;;;;3.45;2.50;;;;;;;;;;5036494;28;20032;-82
2023/06/06 10:03:59;;;;;;;3.47;2.20;;;;;;;;;;5036679;28;20021;-81
2023/06/06 10:06:33;;;;;;;2.47;1.98;;;;;;;;;;5040180;28;20033;-83
2023/06/06 10:08:58;;;;;;;4.30;2.80;;;;;;;;;;5046001;28;20505;-82
2023/06/06 10:11:25;;;;;;;9.93;2.80;;;;;;;;;;5034029;28;20116;-83
2023/06/06 10:13:51;;;;;;;5.20;2.20;;;;;;;;;;5036160;28;20087;-84
2023/06/06 10:16:18;;;;;;;2.75;2.10;;;;;;;;;;5036079;28;20439;-84
2023/06/06 10:18:46;;;;;;;3.33;2.28;;;;;;;;;;5032326;28;20034;-84
2023/06/06 10:21:15;;;;;;;5.40;2.58;;;;;;;;;;5042914;28;20025;-83
2023/06/06 10:23:40;;;;;;;4.25;2.60;;;;;;;;;;5033579;28;20017;-79
2023/06/06 10:26:09;;;;;;;4.63;2.25;;;;;;;;;;5030774;28;20148;-84
2023/06/06 10:28:38;;;;;;;6.95;2.58;;;;;;;;;;5036393;28;20406;-83
2023/06/06 10:31:16;;;;;;;4.88;2.30;;;;;;;;;;5034240;28;20095;-85
2023/06/06 10:33:51;;;;;;;3.22;2.30;;;;;;;;;;5037847;28;20025;-81
2023/06/06 10:36:18;;;;;;;2.97;2.47;;;;;;;;;;5036138;28;20025;-83
2023/06/06 10:39:20;;;;;;;3.78;2.53;;;;;;;;;;5040129;28;20048;-83
2023/06/06 10:41:51;;;;;;;4.80;2.40;;;;;;;;;;5036649;28;20451;-82
2023/06/06 10:44:41;;;;;;;3.67;2.38;;;;;;;;;;5031951;28;20057;-83
2023/06/06 10:47:35;;;;;;;3.45;2.50;;;;;;;;;;5022950;28;20503;-84
2023/06/06 10:50:12;;;;;;;3.72;2.75;;;;;;;;;;5058956;28;20034;-81
2023/06/06 10:52:50;;;;;;;4.25;2.40;;;;;;;;;;5054242;28;20018;-84
2023/06/06 10:55:24;;;;;;;6.65;2.40;;;;;;;;;;5034163;28;20114;-85
2023/06/06 10:58:06;;;;;;;4.45;2.30;;;;;;;;;;5035204;28;20053;-85
2023/06/06 11:00:33;;;;;;;4.13;2.50;;;;;;;;;;5031625;28;20033;-84
2023/06/06 11:03:09;;;;;;;2.67;2.17;;;;;;;;;;5037071;28;20029;-83
2023/06/06 11:06:00;;;;;;;4.70;2.40;;;;;;;;;;5026887;28;20033;-82
2023/06/06 11:08:53;;;;;;;6.28;2.17;;;;;;;;;;5031345;28;20029;-83
2023/06/06 11:11:30;;;;;;;6.95;3.13;;;;;;;;;;5033394;28;20059;-81
2023/06/06 11:14:01;;;;;;;8.32;2.75;;;;;;;;;;5037556;28;20108;-83
2023/06/06 11:16:27;;;;;;;;;;;;;;;;;;5038049;28;20033;-84
2023/06/06 11:19:00;;;;;;;2.30;2.10;;;;;;;;;;5038653;28;19916;-85
2023/06/06 11:21:26;;;;;;;4.72;2.30;;;;;;;;;;5040863;28;20096;-84
2023/06/06 11:23:52;;;;;;;3.45;2.60;;;;;;;;;;5037702;28;20071;-82
2023/06/06 11:26:18;;;;;;;4.40;2.35;;;;;;;;;;5044203;28;20048;-83
2023/06/06 11:28:45;;;;;;;3.40;2.53;;;;;;;;;;5038580;28;20410;-84
2023/06/06 11:31:10;;;;;;;2.90;2.10;;;;;;;;;;5036360;28;20025;-83
2023/06/06 11:33:36;;;;;;;6.40;2.33;;;;;;;;;;5038684;28;20029;-82
2023/06/06 11:36:01;;;;;;;5.55;2.45;;;;;;;;;;5044846;28;20025;-81
2023/06/06 11:38:27;;;;;;;3.22;2.58;;;;;;;;;;5037754;28;20028;-83
2023/06/06 11:40:52;;;;;;;5.55;2.10;;;;;;;;;;5037465;28;20021;-85
2023/06/06 11:43:18;;;;;;;4.93;2.15;;;;;;;;;;5039000;28;20075;-83
2023/06/06 11:45:43;;;;;;;5.00;2.20;;;;;;;;;;5039081;28;20030;-84
2023/06/06 11:48:25;;;;;;;2.67;2.25;;;;;;;;;;5040512;28;20472;-85
2023/06/06 11:50:51;;;;;;;3.05;2.25;;;;;;;;;;5036899;28;20029;-85
2023/06/06 11:53:29;;;;;;;3.90;2.45;;;;;;;;;;5036900;28;20035;-84
2023/06/06 11:55:55;;;;;;;7.22;2.30;;;;;;;;;;5046517;28;20025;-84
2023/06/06 11:58:20;;;;;;;3.92;2.30;;;;;;;;;;5038695;28;20067;-82
2023/06/06 12:00:46;;;;;;;3.70;2.33;;;;;;;;;;5031365;28;20025;-82
2023/06/06 12:03:15;;;;;;;2.63;1.90;;;;;;;;;;5037314;28;20021;-82
2023/06/06 12:05:41;;;;;;;6.75;2.10;;;;;;;;;;5039115;28;20117;-81
2023/06/06 12:08:07;;;;;;;6.45;2.40;;;;;;;;;;5031250;28;20075;-82
2023/06/06 12:10:33;;;;;;;3.53;2.50;;;;;;;;;;5035192;28;20131;-83
2023/06/06 12:12:59;;;;;;;7.13;2.50;;;;;;;;;;5033353;28;20037;-84
2023/06/06 12:15:49;;;;;;;2.97;2.30;;;;;;;;;;5037065;28;20021;-84
2023/06/06 12:18:14;;;;;;;4.88;2.78;;;;;;;;;;5035815;28;20083;-81
2023/06/06 12:20:40;;;;;;;6.00;2.78;;;;;;;;;;5035004;28;20049;-84
2023/06/06 12:23:05;;;;;;;3.03;2.25;;;;;;;;;;5035623;28;22174;-81
2023/06/06 12:25:30;;;;;;;3.45;2.20;;;;;;;;;;5030052;28;20570;-82
2023/06/06 12:28:08;;;;;;;3.40;2.05;;;;;;;;;;5034120;28;20483;-83
2023/06/06 12:30:33;;;;;;;9.65;2.83;;;;;;;;;;5031737;28;20025;-83
2023/06/06 12:33:01;;;;;;;4.65;2.40;;;;;;;;;;5038748;28;20112;-83
2023/06/06 12:35:27;;;;;;;3.50;2.20;;;;;;;;;;5034387;28;20025;-82
2023/06/06 12:37:52;;;;;;;6.40;2.30;;;;;;;;;;5036527;28;20029;-82
2023/06/06 12:40:20;;;;;;;3.20;2.45;;;;;;;;;;5035163;28;20045;-81
2023/06/06 12:42:53;;;;;;;4.53;2.47;;;;;;;;;;5030893;28;20065;-83
2023/06/06 12:45:19;;;;;;;6.82;2.40;;;;;;;;;;5024719;28;20041;-82
2023/06/06 12:47:51;;;;;;;3.38;2.53;;;;;;;;;;5028444;28;20511;-84
2023/06/06 12:50:16;;;;;;;2.75;2.40;;;;;;;;;;5005974;28;20025;-84
2023/06/06 12:52:42;;;;;;;2.65;2.22;;;;;;;;;;4919589;28;20030;-85
2023/06/06 12:55:07;;;;;;;2.70;2.17;;;;;;;;;;5036185;28;20060;-83
2023/06/06 12:57:33;;;;;;;6.70;2.67;;;;;;;;;;5024971;28;20040;-84
2023/06/06 12:59:58;;;;;;;5.55;2.67;;;;;;;;;;5037854;28;20064;-84
2023/06/06 13:02:23;;;;;;;5.25;2.20;;;;;;;;;;5034369;28;20083;-84
2023/06/06 13:04:49;;;;;;;2.47;2.20;;;;;;;;;;5047081;28;20053;-85
2023/06/06 13:07:15;;;;;;;3.25;2.50;;;;;;;;;;5037189;28;20109;-84
2023/06/06 13:09:41;;;;;;;3.38;2.53;;;;;;;;;;5042907;28;20026;-85
2023/06/06 13:12:07;;;;;;;5.28;2.20;;;;;;;;;;5036150;28;20029;-84
2023/06/06 13:14:35;;;;;;;2.90;2.60;;;;;;;;;;5032563;28;20086;-84
2023/06/06 13:17:00;;;;;;;5.70;3.35;;;;;;;;;;5037353;28;20044;-85
2023/06/06 13:19:26;;;;;;;4.18;2.85;;;;;;;;;;5045587;28;20017;-85
2023/06/06 13:21:52;;;;;;;3.30;2.38;;;;;;;;;;5039652;28;20033;-83
2023/06/06 13:24:17;;;;;;;5.13;2.67;;;;;;;;;;5052925;28;20028;-85
2023/06/06 13:26:43;;;;;;;3.95;2.50;;;;;;;;;;5050555;28;20048;-85
2023/06/06 13:29:09;;;;;;;4.35;2.63;;;;;;;;;;5057882;28;20044;-82
2023/06/06 13:31:35;;;;;;;7.07;2.35;;;;;;;;;;5043511;28;20400;-83
2023/06/06 13:34:01;;;;;;;4.20;2.83;;;;;;;;;;5046244;28;20487;-83
2023/06/06 13:36:26;;;;;;;4.38;2.65;;;;;;;;;;5031868;28;20057;-83
2023/06/06 13:38:52;;;;;;;4.60;2.83;;;;;;;;;;5039631;28;20044;-84
2023/06/06 13:41:18;;;;;;;4.57;2.22;;;;;;;;;;5039265;28;20027;-84
2023/06/06 13:43:44;;;;;;;3.55;2.22;;;;;;;;;;5038983;28;20053;-84
2023/06/06 13:46:09;;;;;;;2.80;2.40;;;;;;;;;;5035343;28;20615;-84
2023/06/06 13:48:35;;;;;;;4.93;2.60;;;;;;;;;;5035831;28;20119;-81
2023/06/06 13:51:00;;;;;;;3.28;2.20;;;;;;;;;;5059518;28;20017;-81
2023/06/06 13:53:26;;;;;;;4.55;2.38;;;;;;;;;;5061461;28;20025;-81
2023/06/06 13:55:53;;;;;;;5.80;3.03;;;;;;;;;;5052509;28;20060;-84
2023/06/06 13:58:22;;;;;;;4.72;3.08;;;;;;;;;;5041857;28;20021;-85
2023/06/06 14:00:48;;;;;;;7.68;2.53;;;;;;;;;;5035833;28;20037;-84
2023/06/06 14:03:14;;;;;;;6.07;2.22;;;;;;;;;;5035178;28;20018;-85
2023/06/06 14:05:39;;;;;;;5.43;2.20;;;;;;;;;;5025720;28;20065;-85
2023/06/06 14:08:04;;;;;;;3.53;2.85;;;;;;;;;;5034849;28;21018;-89
2023/06/06 14:10:30;;;;;;;6.65;2.53;;;;;;;;;;5037901;28;20032;-81
2023/06/06 14:12:57;;;;;;;4.95;2.33;;;;;;;;;;5030263;28;20846;-81
2023/06/06 14:15:23;;;;;;;3.70;2.50;;;;;;;;;;5023238;28;20114;-83
2023/06/06 14:25:38;;;;;;;3.90;2.20;;;;;;;;;;5025783;28;20055;-85
2023/06/06 14:43:08;;;;;;;3.85;2.40;;;;;;;;;;5011059;28;20108;-85
2023/06/06 14:50:07;;;;;;;7.68;2.33;;;;;;;;;;5058074;28;20075;-84
2023/06/06 15:04:43;;;;;;;;;;;;;;;;;;;;;
2023/06/06 15:07:46;;;;;;;4.10;2.05;;;;;;;;;;4702304;30;20062;-82
2023/06/06 15:10:53;;;;;;;9.18;2.20;;;;;;;;;;4790484;29;20516;-83
2023/06/06 15:13:24;;;;;;;5.03;2.40;;;;;;;;;;5032893;28;20052;-83
2023/06/06 16:23:31;;;;;;;4.97;2.10;;;;;;;;;;5045680;22;20056;-82
2023/06/06 16:26:05;;;;;;;7.57;2.22;;;;;;;;;;5024724;28;20022;-82
2023/06/06 16:29:34;;;;;;;;;;;;;;;;;;;;;
2023/06/06 16:36:01;;;;;;;4.07;1.95;;;;;;;;;;4897998;29;20048;-83
2023/06/06 16:38:51;;;;;;;1.92;1.73;;;;;;;;;;4886479;29;20627;-81
2023/06/06 16:45:06;;;;;;;2.58;2.15;;;;;;;;;;4891170;29;20089;-81
2023/06/06 16:52:25;;;;;;;2.28;1.85;;;;;;;;;;4918170;29;20072;-80
2023/06/06 16:54:32;;;;;;;2.22;1.70;;;;;;;;;;4873356;29;20669;-83
2023/06/06 16:57:32;;;;;;;2.78;2.13;;;;;;;;;;4869350;29;20037;-81